createdAt,value
2022-10-31T00:00:23.301Z,100.00
2022-10-31T00:03:25.788Z,100.00
2022-10-31T00:06:28.416Z,100.00
2022-10-31T00:09:30.344Z,100.00
2022-10-31T00:12:32.377Z,100.00
2022-10-31T00:15:35.902Z,100.00
2022-10-31T00:18:37.887Z,100.00
2022-10-31T00:21:39.907Z,100.00
2022-10-31T00:24:41.782Z,100.00
2022-10-31T00:27:43.710Z,100.00
2022-10-31T00:30:47.185Z,100.00
2022-10-31T00:33:49.190Z,100.00
2022-10-31T00:36:51.145Z,100.00
2022-10-31T00:39:53.706Z,100.00
2022-10-31T00:42:55.670Z,100.00
2022-10-31T00:45:59.643Z,100.00
2022-10-31T00:49:01.715Z,100.00
2022-10-31T00:52:03.748Z,100.00
2022-10-31T00:55:05.998Z,100.00
2022-10-31T00:58:08.047Z,100.00
2022-10-31T01:01:11.508Z,100.00
2022-10-31T01:04:13.470Z,100.00
2022-10-31T01:07:15.467Z,100.00
2022-10-31T01:10:17.825Z,100.00
2022-10-31T01:13:19.750Z,100.00
2022-10-31T01:16:25.101Z,100.00
2022-10-31T01:19:27.084Z,100.00
2022-10-31T01:22:29.362Z,100.00
2022-10-31T01:25:31.259Z,100.00
2022-10-31T01:28:33.779Z,100.00
2022-10-31T01:31:40.175Z,100.00
2022-10-31T01:34:42.256Z,100.00
2022-10-31T01:37:44.239Z,100.00
2022-10-31T01:40:46.177Z,100.00
2022-10-31T01:43:51.449Z,100.00
2022-10-31T01:46:57.929Z,100.00
2022-10-31T01:50:03.825Z,100.00
2022-10-31T01:53:08.657Z,100.00
2022-10-31T01:56:11.184Z,100.00
2022-10-31T01:59:17.352Z,100.00
2022-10-31T02:02:21.103Z,100.00
2022-10-31T02:05:26.780Z,100.00
2022-10-31T02:08:30.292Z,100.00
2022-10-31T02:11:33.636Z,100.00
2022-10-31T02:14:37.377Z,100.00
2022-10-31T02:17:40.859Z,100.00
2022-10-31T02:20:51.358Z,100.00
2022-10-31T02:24:18.420Z,100.00
2022-10-31T02:27:42.303Z,100.00
2022-10-31T02:31:01.470Z,100.00
2022-10-31T02:34:14.074Z,100.00
2022-10-31T02:37:22.102Z,100.00
2022-10-31T02:40:28.271Z,100.00
2022-10-31T02:43:37.363Z,100.00
2022-10-31T02:46:49.011Z,100.00
2022-10-31T02:49:58.320Z,100.00
2022-10-31T02:53:00.012Z,100.00
2022-10-31T02:56:07.498Z,100.00
2022-10-31T02:59:09.456Z,100.00
2022-10-31T03:02:33.869Z,100.00
2022-10-31T03:05:49.011Z,100.00
2022-10-31T03:08:59.715Z,100.00
2022-10-31T03:12:07.979Z,100.00
2022-10-31T03:15:15.320Z,100.00
2022-10-31T03:18:26.757Z,100.00
2022-10-31T03:21:34.954Z,100.00
2022-10-31T03:24:40.174Z,100.00
2022-10-31T03:27:43.421Z,100.00
2022-10-31T03:30:46.987Z,100.00
2022-10-31T03:33:52.223Z,100.00
2022-10-31T03:36:57.902Z,100.00
2022-10-31T03:40:02.060Z,100.00
2022-10-31T03:43:08.895Z,100.00
2022-10-31T03:46:11.472Z,100.00
2022-10-31T03:49:16.312Z,100.00
2022-10-31T03:52:25.562Z,100.00
2022-10-31T03:55:31.659Z,100.00
2022-10-31T03:58:37.997Z,100.00
2022-10-31T04:01:44.272Z,100.00
2022-10-31T04:04:50.204Z,100.00
2022-10-31T04:07:56.003Z,100.00
2022-10-31T04:11:00.317Z,100.00
2022-10-31T04:14:05.789Z,100.00
2022-10-31T04:17:12.497Z,100.00
2022-10-31T04:20:18.550Z,100.00
2022-10-31T04:23:23.473Z,100.00
2022-10-31T04:26:25.892Z,100.00
2022-10-31T04:29:27.837Z,100.00
2022-10-31T04:32:29.851Z,100.00
2022-10-31T04:35:33.289Z,100.00
2022-10-31T04:38:35.283Z,100.00
2022-10-31T04:41:37.213Z,100.00
2022-10-31T04:44:39.157Z,100.00
2022-10-31T04:47:41.314Z,100.00
2022-10-31T04:50:44.764Z,100.00
2022-10-31T04:53:46.752Z,100.00
2022-10-31T04:56:48.696Z,100.00
2022-10-31T04:59:50.613Z,100.00
2022-10-31T05:02:54.366Z,100.00
2022-10-31T05:05:57.658Z,100.00
2022-10-31T05:08:59.656Z,100.00
2022-10-31T05:12:01.580Z,100.00
2022-10-31T05:15:03.850Z,100.00
2022-10-31T05:18:05.952Z,100.00
2022-10-31T05:21:09.329Z,100.00
2022-10-31T05:24:11.379Z,100.00
2022-10-31T05:27:13.384Z,100.00
2022-10-31T05:30:18.074Z,100.00
2022-10-31T05:33:19.998Z,100.00
2022-10-31T05:36:23.392Z,100.00
2022-10-31T05:39:25.732Z,100.00
2022-10-31T05:42:27.685Z,100.00
2022-10-31T05:45:29.656Z,100.00
2022-10-31T05:48:31.621Z,100.00
2022-10-31T05:51:36.094Z,100.00
2022-10-31T05:54:38.114Z,100.00
2022-10-31T05:57:40.226Z,100.00
2022-10-31T06:00:42.259Z,100.00
2022-10-31T06:03:44.192Z,100.00
2022-10-31T06:06:47.980Z,100.00
2022-10-31T06:09:49.993Z,100.00
2022-10-31T06:12:51.884Z,100.00
2022-10-31T06:15:54.048Z,100.00
2022-10-31T06:18:55.991Z,100.00
2022-10-31T06:21:59.569Z,100.00
2022-10-31T06:25:01.504Z,100.00
2022-10-31T06:28:03.464Z,100.00
2022-10-31T06:31:05.766Z,100.00
2022-10-31T06:34:07.955Z,100.00
2022-10-31T06:37:13.090Z,100.00
2022-10-31T06:40:15.012Z,100.00
2022-10-31T06:43:16.938Z,100.00
2022-10-31T06:46:18.991Z,100.00
2022-10-31T06:49:21.012Z,100.00
2022-10-31T06:52:24.372Z,100.00
2022-10-31T06:55:27.538Z,100.00
2022-10-31T06:58:29.472Z,100.00
2022-10-31T07:01:31.590Z,100.00
2022-10-31T07:04:33.969Z,100.00
2022-10-31T07:07:37.391Z,100.00
2022-10-31T07:10:41.031Z,100.00
2022-10-31T07:13:43.144Z,100.00
2022-10-31T07:16:45.082Z,100.00
2022-10-31T07:19:47.012Z,100.00
2022-10-31T07:22:50.799Z,100.00
2022-10-31T07:25:56.355Z,100.00
2022-10-31T07:28:58.377Z,100.00
2022-10-31T07:32:00.291Z,100.00
2022-10-31T07:35:02.274Z,100.00
2022-10-31T07:38:13.098Z,100.00
2022-10-31T07:41:15.061Z,100.00
2022-10-31T07:44:16.999Z,100.00
2022-10-31T07:47:18.914Z,100.00
2022-10-31T07:50:22.883Z,100.00
2022-10-31T07:53:26.146Z,100.00
2022-10-31T07:56:28.168Z,100.00
2022-10-31T07:59:30.237Z,100.00
2022-10-31T08:02:32.178Z,100.00
2022-10-31T08:05:34.704Z,100.00
2022-10-31T08:08:38.511Z,100.00
2022-10-31T08:11:40.575Z,100.00
2022-10-31T08:14:42.589Z,100.00
2022-10-31T08:17:44.595Z,100.00
2022-10-31T08:20:46.547Z,100.00
2022-10-31T08:23:49.857Z,100.00
2022-10-31T08:26:52.982Z,100.00
2022-10-31T08:29:54.904Z,100.00
2022-10-31T08:33:01.719Z,100.00
2022-10-31T08:36:03.700Z,100.00
2022-10-31T08:39:07.052Z,100.00
2022-10-31T08:42:08.995Z,100.00
2022-10-31T08:45:11.154Z,100.00
2022-10-31T08:48:15.662Z,100.00
2022-10-31T08:51:17.630Z,100.00
2022-10-31T08:54:20.934Z,100.00
2022-10-31T08:57:22.926Z,100.00
2022-10-31T09:00:25.251Z,100.00
2022-10-31T09:03:28.792Z,100.00
2022-10-31T09:06:30.779Z,100.00
2022-10-31T09:09:34.346Z,100.00
2022-10-31T09:12:36.293Z,100.00
2022-10-31T09:15:41.237Z,100.00
2022-10-31T09:18:43.410Z,100.00
2022-10-31T09:21:45.316Z,100.00
2022-10-31T09:24:48.627Z,100.00
2022-10-31T09:27:50.546Z,100.00
2022-10-31T09:30:54.124Z,100.00
2022-10-31T09:33:56.040Z,100.00
2022-10-31T09:36:58.067Z,100.00
2022-10-31T09:40:01.766Z,100.00
2022-10-31T09:43:16.453Z,100.00
2022-10-31T09:46:30.422Z,100.00
2022-10-31T09:49:42.807Z,100.00
2022-10-31T09:52:51.839Z,100.00
2022-10-31T09:55:56.291Z,100.00
2022-10-31T09:59:00.910Z,100.00
2022-10-31T10:02:06.563Z,100.00
2022-10-31T10:05:14.044Z,100.00
2022-10-31T10:08:20.762Z,100.00
2022-10-31T10:11:47.001Z,100.00
2022-10-31T10:15:00.373Z,100.00
2022-10-31T10:18:10.192Z,100.00
2022-10-31T10:21:25.957Z,100.00
2022-10-31T10:24:44.893Z,100.00
2022-10-31T10:27:58.402Z,100.00
2022-10-31T10:31:04.761Z,100.00
2022-10-31T10:34:18.032Z,100.00
2022-10-31T10:37:27.592Z,100.00
2022-10-31T10:40:30.480Z,100.00
2022-10-31T10:43:35.515Z,100.00
2022-10-31T10:46:42.604Z,100.00
2022-10-31T10:49:50.842Z,100.00
2022-10-31T10:53:02.131Z,100.00
2022-10-31T10:56:15.412Z,100.00
2022-10-31T10:59:21.852Z,100.00
2022-10-31T11:02:26.048Z,100.00
2022-10-31T11:05:35.332Z,100.00
2022-10-31T11:08:37.877Z,100.00
2022-10-31T11:11:40.210Z,100.00
2022-10-31T11:14:48.448Z,100.00
2022-10-31T11:17:52.459Z,100.00
2022-10-31T11:20:56.541Z,100.00
2022-10-31T11:24:04.272Z,100.00
2022-10-31T11:27:14.892Z,100.00
2022-10-31T11:30:18.322Z,100.00
2022-10-31T11:33:25.434Z,100.00
2022-10-31T11:36:31.779Z,100.00
2022-10-31T11:39:41.229Z,100.00
2022-10-31T11:42:44.004Z,100.00
2022-10-31T11:45:47.592Z,100.00
2022-10-31T11:48:52.737Z,100.00
2022-10-31T11:51:57.559Z,100.00
2022-10-31T11:55:02.232Z,100.00
2022-10-31T11:58:05.326Z,100.00
2022-10-31T12:01:25.131Z,100.00
2022-10-31T12:04:38.214Z,100.00
2022-10-31T12:07:40.205Z,100.00
2022-10-31T12:10:54.280Z,100.00
2022-10-31T12:14:07.923Z,100.00
2022-10-31T12:17:16.549Z,100.00
2022-10-31T12:20:26.767Z,100.00
2022-10-31T12:23:40.782Z,100.00
2022-10-31T12:26:55.574Z,100.00
2022-10-31T12:30:11.351Z,100.00
2022-10-31T12:33:38.259Z,100.00
2022-10-31T12:36:50.950Z,100.00
2022-10-31T12:40:03.110Z,100.00
2022-10-31T12:43:20.699Z,100.00
2022-10-31T12:46:33.994Z,100.00
2022-10-31T12:49:50.697Z,100.00
2022-10-31T12:53:02.675Z,100.00
2022-10-31T12:56:25.081Z,100.00
2022-10-31T12:59:32.915Z,100.00
2022-10-31T13:02:40.213Z,100.00
2022-10-31T13:05:47.520Z,100.00
2022-10-31T13:08:53.870Z,100.00
2022-10-31T13:11:59.831Z,100.00
2022-10-31T13:15:06.951Z,100.00
2022-10-31T13:18:28.867Z,100.00
2022-10-31T13:21:41.217Z,100.00
2022-10-31T13:24:48.128Z,100.00
2022-10-31T13:27:55.148Z,100.00
2022-10-31T13:30:57.097Z,100.00
2022-10-31T13:34:04.892Z,98.90
2022-10-31T13:37:17.626Z,100.00
2022-10-31T13:40:31.723Z,100.00
2022-10-31T13:43:54.155Z,98.38
2022-10-31T13:46:57.699Z,96.01
2022-10-31T13:50:19.505Z,94.29
2022-10-31T13:53:36.064Z,93.30
2022-10-31T13:56:38.077Z,91.15
2022-10-31T13:59:40.152Z,94.88
2022-10-31T14:02:48.779Z,96.37
2022-10-31T14:05:54.908Z,96.99
2022-10-31T14:08:58.285Z,94.68
2022-10-31T14:12:05.554Z,96.59
2022-10-31T14:15:17.035Z,98.49
2022-10-31T14:18:29.884Z,98.49
2022-10-31T14:21:38.573Z,95.04
2022-10-31T14:24:42.025Z,99.86
2022-10-31T14:27:48.077Z,100.00
2022-10-31T14:30:54.324Z,100.00
2022-10-31T14:33:56.356Z,100.00
2022-10-31T14:37:31.352Z,100.00
2022-10-31T14:40:43.485Z,100.00
2022-10-31T14:44:11.206Z,100.00
2022-10-31T14:47:23.029Z,100.00
2022-10-31T14:50:35.463Z,100.00
2022-10-31T14:53:46.424Z,100.00
2022-10-31T14:56:53.457Z,100.00
2022-10-31T15:00:03.656Z,100.00
2022-10-31T15:03:13.361Z,100.00
2022-10-31T15:06:17.743Z,100.00
2022-10-31T15:09:24.166Z,100.00
2022-10-31T15:12:30.135Z,100.00
2022-10-31T15:15:33.951Z,100.00
2022-10-31T15:18:36.021Z,100.00
2022-10-31T15:21:43.105Z,100.00
2022-10-31T15:24:45.923Z,100.00
2022-10-31T15:27:50.803Z,100.00
2022-10-31T15:30:54.656Z,100.00
2022-10-31T15:34:01.375Z,100.00
2022-10-31T15:37:03.441Z,100.00
2022-10-31T15:40:12.972Z,100.00
2022-10-31T15:43:17.504Z,100.00
2022-10-31T15:46:19.497Z,100.00
2022-10-31T15:49:30.048Z,100.00
2022-10-31T15:52:35.373Z,100.00
2022-10-31T15:55:46.406Z,100.00
2022-10-31T15:58:52.563Z,100.00
2022-10-31T16:02:02.889Z,100.00
2022-10-31T16:05:18.113Z,100.00
2022-10-31T16:08:25.688Z,100.00
2022-10-31T16:11:35.845Z,100.00
2022-10-31T16:14:41.007Z,100.00
2022-10-31T16:17:46.150Z,100.00
2022-10-31T16:20:51.184Z,100.00
2022-10-31T16:23:58.318Z,100.00
2022-10-31T16:27:04.602Z,100.00
2022-10-31T16:30:36.840Z,100.00
2022-10-31T16:33:38.944Z,100.00
2022-10-31T16:36:40.964Z,100.00
2022-10-31T16:39:42.917Z,100.00
2022-10-31T16:42:46.260Z,100.00
2022-10-31T16:45:52.280Z,100.00
2022-10-31T16:48:55.060Z,100.00
2022-10-31T16:51:57.219Z,100.00
2022-10-31T16:54:59.817Z,100.00
2022-10-31T16:58:03.063Z,100.00
2022-10-31T17:01:08.787Z,100.00
2022-10-31T17:04:14.438Z,100.00
2022-10-31T17:07:16.749Z,100.00
2022-10-31T17:10:18.848Z,100.00
2022-10-31T17:13:24.310Z,100.00
2022-10-31T17:16:27.732Z,100.00
2022-10-31T17:19:29.846Z,100.00
2022-10-31T17:22:32.323Z,100.00
2022-10-31T17:25:34.347Z,100.00
2022-10-31T17:28:36.529Z,100.00
2022-10-31T17:31:40.256Z,100.00
2022-10-31T17:34:42.808Z,100.00
2022-10-31T17:37:46.243Z,100.00
2022-10-31T17:43:56.019Z,100.00
2022-10-31T17:46:59.639Z,100.00
2022-10-31T17:50:02.297Z,100.00
2022-10-31T17:53:04.610Z,100.00
2022-10-31T17:56:09.275Z,100.00
2022-10-31T17:59:11.532Z,100.00
2022-10-31T18:02:17.372Z,100.00
2022-10-31T18:05:19.473Z,100.00
2022-10-31T18:08:25.490Z,100.00
2022-10-31T18:11:27.795Z,100.00
2022-10-31T18:14:29.803Z,100.00
2022-10-31T18:17:35.880Z,100.00
2022-10-31T18:20:40.142Z,100.00
2022-10-31T18:23:43.381Z,100.00
2022-10-31T18:26:45.667Z,100.00
2022-10-31T18:29:47.957Z,100.00
2022-10-31T18:32:52.243Z,100.00
2022-10-31T18:35:54.876Z,100.00
2022-10-31T18:38:57.217Z,100.00
2022-10-31T18:41:59.556Z,100.00
2022-10-31T18:45:11.400Z,100.00
2022-10-31T18:48:21.411Z,100.00
2022-10-31T18:51:24.188Z,100.00
2022-10-31T18:54:26.862Z,100.00
2022-10-31T18:57:30.993Z,100.00
2022-10-31T19:00:33.103Z,100.00
2022-10-31T19:03:37.202Z,100.00
2022-10-31T19:06:39.303Z,100.00
2022-10-31T19:09:42.155Z,100.00
2022-10-31T19:12:44.524Z,100.00
2022-10-31T19:15:47.746Z,100.00
2022-10-31T19:18:54.353Z,100.00
2022-10-31T19:21:57.137Z,100.00
2022-10-31T19:25:03.006Z,100.00
2022-10-31T19:28:09.133Z,100.00
2022-10-31T19:31:11.509Z,100.00
2022-10-31T19:34:18.234Z,100.00
2022-10-31T19:37:29.887Z,100.00
2022-10-31T19:40:32.141Z,100.00
2022-10-31T19:43:34.157Z,100.00
2022-10-31T19:46:53.359Z,100.00
2022-10-31T19:49:58.693Z,100.00
2022-10-31T19:53:00.875Z,100.00
2022-10-31T19:56:03.339Z,100.00
2022-10-31T19:59:05.344Z,100.00
2022-10-31T20:02:07.712Z,100.00
2022-10-31T20:05:14.632Z,100.00
2022-10-31T20:08:18.192Z,100.00
2022-10-31T20:11:20.731Z,100.00
2022-10-31T20:14:23.218Z,100.00
2022-10-31T20:17:25.718Z,100.00
2022-10-31T20:20:29.722Z,100.00
2022-10-31T20:23:32.173Z,100.00
2022-10-31T20:26:35.088Z,100.00
2022-10-31T20:29:37.041Z,100.00
2022-10-31T20:32:39.074Z,100.00
2022-10-31T20:35:44.473Z,100.00
2022-10-31T20:38:46.996Z,100.00
2022-10-31T20:41:49.632Z,100.00
2022-10-31T20:44:51.982Z,100.00
2022-10-31T20:47:54.814Z,100.00
2022-10-31T20:51:00.238Z,100.00
2022-10-31T20:54:02.228Z,100.00
2022-10-31T20:57:04.339Z,100.00
2022-10-31T21:00:10.137Z,100.00
2022-10-31T21:03:13.005Z,100.00
2022-10-31T21:06:18.287Z,100.00
2022-10-31T21:09:20.439Z,100.00
2022-10-31T21:12:22.638Z,100.00
2022-10-31T21:15:25.323Z,100.00
2022-10-31T21:18:27.931Z,100.00
2022-10-31T21:21:34.559Z,100.00
2022-10-31T21:24:36.549Z,100.00
2022-10-31T21:27:38.879Z,100.00
2022-10-31T21:30:41.557Z,100.00
2022-10-31T21:33:45.808Z,100.00
2022-10-31T21:36:49.225Z,100.00
2022-10-31T21:39:51.174Z,100.00
2022-10-31T21:42:53.225Z,100.00
2022-10-31T21:45:55.288Z,100.00
2022-10-31T21:48:57.920Z,100.00
2022-10-31T21:52:01.276Z,100.00
2022-10-31T21:55:03.497Z,100.00
2022-10-31T21:58:05.443Z,100.00
2022-10-31T22:01:07.603Z,100.00
2022-10-31T22:04:10.220Z,100.00
2022-10-31T22:07:13.531Z,100.00
2022-10-31T22:10:15.566Z,100.00
2022-10-31T22:13:17.471Z,100.00
2022-10-31T22:16:21.804Z,100.00
2022-10-31T22:19:23.748Z,100.00
2022-10-31T22:22:27.131Z,100.00
2022-10-31T22:25:29.065Z,100.00
2022-10-31T22:28:31.616Z,100.00
2022-10-31T22:31:34.372Z,100.00
2022-10-31T22:34:36.307Z,100.00
2022-10-31T22:37:39.609Z,100.00
2022-10-31T22:40:41.683Z,100.00
2022-10-31T22:43:43.777Z,100.00
2022-10-31T22:46:45.681Z,100.00
2022-10-31T22:49:47.715Z,100.00
2022-10-31T22:52:51.154Z,100.00
2022-10-31T22:55:53.027Z,100.00
2022-10-31T22:58:55.292Z,100.00
2022-10-31T23:01:57.357Z,100.00
2022-10-31T23:04:59.506Z,100.00
2022-10-31T23:08:03.436Z,100.00
2022-10-31T23:11:14.701Z,100.00
2022-10-31T23:14:18.819Z,100.00
2022-10-31T23:17:20.739Z,100.00
2022-10-31T23:20:24.128Z,100.00
2022-10-31T23:23:27.529Z,100.00
2022-10-31T23:26:29.443Z,100.00
2022-10-31T23:29:31.505Z,100.00
2022-10-31T23:32:35.394Z,100.00
2022-10-31T23:35:37.464Z,100.00
2022-10-31T23:38:41.811Z,100.00
2022-10-31T23:41:43.822Z,100.00
2022-10-31T23:44:46.418Z,100.00
2022-10-31T23:47:48.361Z,100.00
2022-10-31T23:50:50.341Z,100.00
2022-10-31T23:53:53.631Z,100.00
2022-10-31T23:56:56.105Z,100.00
2022-10-31T23:59:58.369Z,100.00
